Aktualne dane pomiarowe

Uwaga, wersja testowa! Automatyczne pobieranie danych za pomocą narzędzi lub skryptów to umożliwiających jest zabronione.

Dane meteo z obszaru Polski uzyskane na podstawie depesz SYNOP pobieranych co godzinę z NWS. Najedź myszką na symbol przedstawiony w tabeli, aby uzyskać informacje co do jego znaczenia. Prosimy pamiętać, że to testowa wersja strony, która jeszcze nie jest ukończona. Stworzono również jest krótki FAQ dotyczący korzystania z tej podstrony Anomalie temperatury w chwili obecnej odniesione są do okresu referencyjnego 1951-2016. Okres ten będzie później zmieniony na 1981-2010. Kliknij ikonę aby pobrać plik CSV. Kliknij ikonę aby wygenerować mapę synoptyczną dla danego terminu.

Wybierz Datę:    

        

Śnieżka (12510)

Dane terminowe dla wybranej stacji. Kliknij datę, aby otrzymać dane z tego terminu dla wszystkich stacji.

TemperaturaZachmurzenieWiatrCiśnienieOpadyPogoda
 Data t td wb tx tn tg rh  Nt Nl Cl Cm Ch ws wd g1 g2 wx mslp ppp ch 24h 12h t ww ww w1 w2  
2019-06-24 23:00:00 12.7 7.8 9.7--- 7250.0wx-wx13wx---- 846.7 -1.7---------
2019-06-24 22:00:00 12.8 8.7 10.2--- 7650.0wx-wx7wx---- 848.1 -0.1---------
2019-06-24 21:00:00 13.1 9.2 10.6--- 7750.0wx-wx6wx---- 848.3 -0.1---------
2019-06-24 20:00:00 13.0 9.4 10.7--- 7950.0wx-wx6wx---- 848.4 0.3---------
2019-06-24 19:00:00 13.1 10.1 11.1--- 8250.0wx-wx6wx---- 848.2 -0.1---------
2019-06-24 18:00:00 13.5 9.7 11.1 15.2 9.7- 7850.0wxwxwxwx4wx---- 848.4 0.7- 0.012------
2019-06-24 17:00:00 13.9 9.5 11.1--- 7550.0wxwxwxwx4wx---- 848.1 0.2---------
2019-06-24 16:00:00 14.1 9.7 11.3--- 7550.0wxwxwxwx3wx---- 848.3 0.3---------
2019-06-24 15:00:00 14.5 9.3 11.3--- 7150.0wxwxwxwx3wx---- 847.7 -0.2---------
2019-06-24 14:00:00 14.4 9.0 11.1--- 7050.0wxwxwxwx5wx---- 847.9 0.1---------
2019-06-24 13:00:00 14.2 8.6 10.8--- 6950.0wxwxwxwx3wx---- 848.0 0.3---------
2019-06-24 12:00:00 14.3 8.5 10.8--- 6850.0wxwxwxwx3wx---- 847.9 0.5- 0.06------
2019-06-24 11:00:00 13.3 6.9 9.5--- 6550.0wxwxwxwx4wx---- 847.8 0.8---------
2019-06-24 10:00:00 13.3 6.2 9.2--- 6250.0wx-wx2wx---- 847.7 1.0---------
2019-06-24 09:00:00 12.2 4.9 8.1--- 6150.0wx-wx3wx---- 847.4 1.2---------
2019-06-24 08:00:00 11.4 3.9 7.3--- 6050.0wx-wx3wx---- 847.0 1.1---------
2019-06-24 07:00:00 10.5 4.0 6.9--- 6450.0wx-wx3wx---- 846.7 1.0---------
2019-06-24 06:00:00 9.7 3.4 6.2 10.9 7.7- 6550.0wx-wx5wx---- 846.2 0.7- 0.012----- 8.0
2019-06-24 05:00:00 9.4 2.0 5.5--- 6050.0wx-wx6wx---- 845.9 0.9---------
2019-06-24 04:00:00 10.8-14.1 2.4--- 1650.0wx-wx5wx---- 845.7 0.6---------
2019-06-24 03:00:00 8.0 1.8 4.7--- 6550.0wx-wx6wx---- 845.5 0.2---------
2019-06-24 02:00:00 8.0 2.7 5.0--- 6950.0wx-wx9wx---- 845.0 -0.4---------
2019-06-24 01:00:00 8.2 3.6 5.5--- 7350.0wx-wx9wx---- 845.1 -0.6---------
2019-06-24 00:00:00 8.9 3.5 5.8--- 6950.0wx-wx8wx---- 845.3 0.1- 0.06------
2019-06-23 23:00:00 8.8 3.8 5.9--- 7150.0wx-9wx---- 845.4 0.7---------
2019-06-23 22:00:00 8.4 4.2 5.9--- 7550.0wx-wx8wx---- 845.7 1.3---------
2019-06-23 21:00:00 9.0 4.2 6.2--- 7250.0wx-wx10wx---- 845.2 1.0---------
2019-06-23 20:00:00 9.5 5.5 7.1--- 7650.0wx-wx11wx---- 844.7 0.8---------
2019-06-23 19:00:00 10.0 5.8 7.5--- 7550.0wx-wx10wx---- 844.4 0.4---------
2019-06-23 18:00:00 10.6 6.7 8.2 11.7 7.9- 7750.0wx-wx10wx---- 844.2 -0.2- 0.012wx-w1--
2019-06-23 17:00:00 10.7 6.6 8.2--- 7650.0wxwxwxwx11wx---- 843.9 -0.6---------
2019-06-23 16:00:00 10.9 7.6 8.8--- 8050.0wxwxwxwx11wx---- 844.0 -0.5---------
2019-06-23 15:00:00 11.2 7.3 8.8--- 7750.0wxwxwxwx9wx---- 844.4 0.3---wx-w1--
2019-06-23 14:00:00 11.1 8.1 9.2--- 8250.0wxwxwxwx8wx---- 844.5 0.4---------
2019-06-23 13:00:00 10.2 9.7 9.8--- 9750.0wxwxwxwx8wx---- 844.5 0.7---wx---
2019-06-23 12:00:00 9.8 9.8 9.7--- 1000.9wxwxwx9wx---- 844.1 0.5- 0.06wx-w1--
2019-06-23 11:00:00 9.6 9.6 9.5--- 10050.0wxwxwx9wx---- 844.1 1.5---wx---
2019-06-23 10:00:00 9.2 9.2 9.1--- 1000.9wxwxwx10wx---- 843.8 1.3---wx-w1w2--
2019-06-23 09:00:00 10.0 10.0 9.9--- 1000.9wxwxwx11wx---- 843.6 1.7---wx-w1w2--
2019-06-23 08:00:00 8.3 8.3 8.2--- 1000.9wxwxwx13wx---- 842.6 1.0---wx-w1w2--
2019-06-23 07:00:00 8.5 8.5 8.4--- 1000.1wxwxwx11wx---- 842.5 1.4---wx-w1w2--
2019-06-23 06:00:00 9.3 9.3 9.2 10.1 7.9- 1000.1wx-13wx---- 841.9 0.6- 0.012wx-- 5.8
2019-06-23 05:00:00 9.9 9.9 9.8--- 1000.1wx-13wx---- 841.6 1.5---wx-w1w2--
2019-06-23 04:00:00 8.6 8.6 8.5--- 1000.6wxwxwx14wx---- 841.1 0.1---wx-w1w2--
2019-06-23 03:00:00 8.4 8.3 8.3--- 990.9wxwxwxwx14wx---- 841.3 0.2---wx-w1w2--
2019-06-23 02:00:00 8.3 7.5 7.7--- 950.9wxwxwxwx15wx---- 840.1 -2.0---wx---
2019-06-23 01:00:00 8.2 5.7 6.6--- 8450.0wx-wx15wx---- 841.0 0.0---------
2019-06-23 00:00:00 8.2 5.7 6.6--- 8450.0wx-wxwx15wx---- 841.1 -0.3- 0.06------
3.2 ms

 

Print Friendly, PDF & Email